ENRS Airport Information

Runway Information
Runway 03 Length 2887 ft width 98 ft
Elevation 6 ft Threshold ft Heading 26
Runway 21 Length 2887 ft Width 98 ft
Elevation 7 ft Threshold ft Heading 206
Airport Frequencies
Airport Navaids
Type VOR-DME Name Roest Frequency 113500 KHZ
Airport Weather Information & NOTAM
ADDS - METARS form results

(0737 UTC 16 August 2022)
Data provider http://aviationweather.gov/metar/data/
 
METAR text: ENRS 160720Z 27010KT 9999 -SHRA FEW030CB BKN040 14/13 Q1007
Conditions at: ENRS (ROST (NOR-AFB) , NO) observed 0720 UTC 16 August 2022
Temperature: 14.0°C (57°F)
Dewpoint: 13.0°C (55°F) [RH = 94%]
Pressure (altimeter): 29.73 inches Hg (1007.0 mb)
Winds: from the W (270 degrees) at 12 MPH (10 knots; 5.1 m/s)
Visibility: 6 or more miles (10+ km)
Ceiling: 4000 feet AGL
Clouds: few clouds at 3000 feet AGL
broken clouds at 4000 feet AGL
Weather: -SHRA  (light rain showers)

METAR text: ENRS 160650Z 26011KT 9999 VCSH FEW040CB BKN060 15/13 Q1006
Conditions at: ENRS (ROST (NOR-AFB) , NO) observed 0650 UTC 16 August 2022
Temperature: 15.0°C (59°F)
Dewpoint: 13.0°C (55°F) [RH = 88%]
Pressure (altimeter): 29.70 inches Hg (1006.0 mb)
Winds: from the W (260 degrees) at 13 MPH (11 knots; 5.7 m/s)
Visibility: 6 or more miles (10+ km)
Ceiling: 6000 feet AGL
Clouds: few clouds at 4000 feet AGL
broken clouds at 6000 feet AGL
Weather: VCSH  (showers in vicinity)